createdAt,value
2023-05-19T00:01:34.593Z,12.80
2023-05-19T00:04:21.760Z,11.18
2023-05-19T00:07:10.978Z,12.57
2023-05-19T00:09:58.096Z,17.95
2023-05-19T00:12:45.309Z,11.20
2023-05-19T00:15:32.538Z,24.00
2023-05-19T00:18:19.635Z,16.25
2023-05-19T00:21:06.466Z,19.17
2023-05-19T00:23:54.014Z,14.20
2023-05-19T00:26:40.824Z,12.65
2023-05-19T00:29:29.225Z,13.13
2023-05-19T00:32:16.365Z,16.27
2023-05-19T00:35:03.511Z,13.45
2023-05-19T00:37:50.345Z,17.70
2023-05-19T00:40:37.247Z,16.92
2023-05-19T00:43:24.077Z,13.43
2023-05-19T00:46:11.172Z,14.05
2023-05-19T00:48:58.113Z,18.05
2023-05-19T00:51:45.955Z,15.73
2023-05-19T00:54:34.609Z,16.52
2023-05-19T00:57:22.110Z,16.00
2023-05-19T01:00:09.697Z,20.33
2023-05-19T01:02:56.863Z,17.40
2023-05-19T01:05:43.764Z,15.48
2023-05-19T01:08:35.489Z,16.55
2023-05-19T01:11:22.321Z,16.85
2023-05-19T01:14:09.240Z,16.83
2023-05-19T01:17:14.719Z,16.80
2023-05-19T01:20:09.912Z,14.45
2023-05-19T01:23:17.133Z,17.65
2023-05-19T01:26:26.249Z,17.30
2023-05-19T01:29:41.917Z,15.77
2023-05-19T01:32:31.088Z,17.58
2023-05-19T01:35:18.531Z,14.52
2023-05-19T01:38:09.133Z,18.17
2023-05-19T01:40:57.249Z,19.52
2023-05-19T01:43:44.636Z,16.75
2023-05-19T01:46:31.628Z,16.27
2023-05-19T01:49:18.542Z,21.85
2023-05-19T01:52:05.707Z,16.88
2023-05-19T01:54:52.587Z,18.83
2023-05-19T01:57:45.271Z,25.23
2023-05-19T02:00:38.279Z,16.75
2023-05-19T02:03:55.939Z,14.65
2023-05-19T02:06:58.053Z,15.63
2023-05-19T02:09:59.318Z,18.88
2023-05-19T02:12:48.013Z,15.43
2023-05-19T02:15:41.405Z,17.90
2023-05-19T02:18:28.789Z,12.82
2023-05-19T02:21:15.627Z,14.10
2023-05-19T02:24:02.670Z,15.63
2023-05-19T02:26:50.821Z,16.60
2023-05-19T02:29:38.707Z,15.75
2023-05-19T02:32:25.839Z,17.15
2023-05-19T02:35:13.620Z,16.50
2023-05-19T02:38:00.498Z,15.20
2023-05-19T02:40:47.531Z,19.58
2023-05-19T02:43:34.517Z,19.38
2023-05-19T02:46:21.518Z,16.25
2023-05-19T02:49:08.422Z,13.82
2023-05-19T02:51:55.252Z,15.68
2023-05-19T02:54:42.165Z,20.40
2023-05-19T02:57:29.671Z,19.80
2023-05-19T03:00:16.584Z,17.33
2023-05-19T03:03:04.811Z,15.48
2023-05-19T03:05:51.740Z,14.70
2023-05-19T03:08:40.128Z,19.10
2023-05-19T03:11:29.148Z,28.80
2023-05-19T03:14:15.997Z,19.67
2023-05-19T03:17:03.178Z,16.00
2023-05-19T03:19:50.025Z,15.25
2023-05-19T03:22:36.909Z,13.38
2023-05-19T03:25:23.896Z,13.25
2023-05-19T03:28:10.799Z,14.35
2023-05-19T03:30:57.766Z,17.52
2023-05-19T03:33:48.727Z,14.20
2023-05-19T03:36:35.902Z,16.60
2023-05-19T03:39:22.798Z,14.77
2023-05-19T03:42:09.648Z,12.48
2023-05-19T03:44:56.571Z,16.10
2023-05-19T03:47:43.580Z,12.60
2023-05-19T03:50:45.143Z,14.43
2023-05-19T03:53:36.830Z,21.17
2023-05-19T03:56:23.757Z,16.27
2023-05-19T03:59:10.597Z,15.23
2023-05-19T04:01:57.642Z,11.65
2023-05-19T04:04:46.389Z,11.63
2023-05-19T04:07:33.330Z,15.05
2023-05-19T04:10:20.297Z,23.00
2023-05-19T04:13:07.248Z,16.77
2023-05-19T04:15:54.406Z,12.05
2023-05-19T04:18:41.285Z,14.57
2023-05-19T04:21:28.120Z,16.38
2023-05-19T04:24:15.146Z,14.65
2023-05-19T04:27:02.257Z,11.70
2023-05-19T04:29:49.446Z,13.02
2023-05-19T04:32:36.476Z,13.35
2023-05-19T04:35:24.000Z,14.23
2023-05-19T04:38:11.328Z,9.30
2023-05-19T04:40:58.811Z,13.48
2023-05-19T04:43:45.737Z,15.68
2023-05-19T04:46:33.343Z,14.52
2023-05-19T04:49:20.393Z,14.93
2023-05-19T04:52:08.995Z,12.73
2023-05-19T04:54:55.863Z,13.30
2023-05-19T04:57:43.786Z,18.83
2023-05-19T05:00:31.440Z,12.73
2023-05-19T05:03:22.288Z,14.98
2023-05-19T05:06:09.244Z,17.40
2023-05-19T05:08:56.134Z,10.90
2023-05-19T05:11:43.456Z,15.10
2023-05-19T05:14:30.799Z,12.60
2023-05-19T05:17:17.922Z,13.73
2023-05-19T05:20:05.509Z,15.18
2023-05-19T05:22:52.686Z,14.82
2023-05-19T05:25:41.906Z,13.05
2023-05-19T05:28:29.835Z,17.10
2023-05-19T05:31:17.591Z,12.45
2023-05-19T05:34:05.060Z,13.13
2023-05-19T05:36:52.739Z,10.63
2023-05-19T05:39:40.152Z,13.00
2023-05-19T05:42:29.469Z,12.60
2023-05-19T05:45:17.119Z,16.70
2023-05-19T05:48:04.537Z,12.18
2023-05-19T05:50:52.680Z,12.27
2023-05-19T05:53:49.808Z,16.10
2023-05-19T05:56:38.077Z,14.15
2023-05-19T05:59:27.977Z,13.13
2023-05-19T06:02:15.047Z,11.82
2023-05-19T06:05:02.161Z,16.45
2023-05-19T06:07:49.197Z,11.88
2023-05-19T06:10:41.358Z,14.90
2023-05-19T06:13:29.634Z,18.88
2023-05-19T06:16:16.640Z,13.77
2023-05-19T06:19:06.274Z,11.07
2023-05-19T06:21:53.346Z,16.27
2023-05-19T06:24:40.966Z,13.63
2023-05-19T06:27:29.752Z,12.20
2023-05-19T06:30:16.666Z,12.98
2023-05-19T06:33:21.581Z,14.57
2023-05-19T06:36:09.052Z,13.73
2023-05-19T06:38:58.842Z,11.60
2023-05-19T06:41:47.066Z,17.83
2023-05-19T06:44:48.070Z,20.00
2023-05-19T06:47:36.047Z,21.17
2023-05-19T06:50:23.188Z,18.77
2023-05-19T06:53:10.120Z,10.50
2023-05-19T06:55:59.756Z,17.33
2023-05-19T06:58:49.065Z,21.85
2023-05-19T07:01:36.184Z,26.00
2023-05-19T07:04:24.114Z,15.40
2023-05-19T07:07:10.972Z,14.88
2023-05-19T07:09:57.874Z,20.10
2023-05-19T07:12:46.226Z,15.95
2023-05-19T07:15:34.165Z,18.17
2023-05-19T07:18:22.355Z,16.33
2023-05-19T07:21:09.224Z,14.20
2023-05-19T07:23:57.550Z,17.75
2023-05-19T07:26:44.388Z,21.85
2023-05-19T07:29:31.198Z,14.85
2023-05-19T07:32:18.197Z,19.77
2023-05-19T07:35:05.989Z,19.42
2023-05-19T07:37:52.928Z,19.88
2023-05-19T07:40:39.805Z,16.75
2023-05-19T07:43:26.917Z,16.48
2023-05-19T07:46:13.853Z,17.60
2023-05-19T07:49:00.742Z,22.60
2023-05-19T07:51:47.655Z,20.13
2023-05-19T07:54:34.507Z,19.75
2023-05-19T07:57:21.424Z,17.85
2023-05-19T08:00:08.819Z,18.55
2023-05-19T08:03:00.257Z,16.55
2023-05-19T08:05:47.311Z,15.65
2023-05-19T08:08:34.753Z,19.63
2023-05-19T08:11:21.956Z,18.38
2023-05-19T08:14:08.791Z,23.85
2023-05-19T08:16:55.594Z,21.45
2023-05-19T08:19:42.437Z,17.15
2023-05-19T08:22:29.319Z,18.85
2023-05-19T08:25:16.204Z,20.02
2023-05-19T08:28:03.137Z,18.00
2023-05-19T08:30:51.165Z,19.65
2023-05-19T08:33:37.965Z,21.13
2023-05-19T08:36:24.816Z,22.00
2023-05-19T08:39:11.899Z,22.85
2023-05-19T08:41:58.760Z,18.77
2023-05-19T08:44:45.651Z,18.02
2023-05-19T08:47:33.180Z,18.80
2023-05-19T08:50:28.155Z,16.30
2023-05-19T08:53:32.469Z,16.88
2023-05-19T08:56:24.681Z,17.35
2023-05-19T08:59:13.148Z,23.20
2023-05-19T09:02:00.097Z,17.85
2023-05-19T09:04:47.330Z,20.90
2023-05-19T09:07:36.377Z,21.10
2023-05-19T09:10:23.266Z,17.90
2023-05-19T09:13:10.161Z,18.60
2023-05-19T09:15:57.837Z,21.45
2023-05-19T09:18:55.404Z,19.55
2023-05-19T09:21:43.587Z,17.17
2023-05-19T09:24:31.901Z,15.85
2023-05-19T09:27:22.334Z,16.52
2023-05-19T09:30:09.446Z,27.33
2023-05-19T09:32:56.535Z,16.05
2023-05-19T09:35:47.136Z,15.88
2023-05-19T09:38:35.488Z,15.88
2023-05-19T09:41:22.530Z,13.60
2023-05-19T09:44:28.042Z,18.92
2023-05-19T09:47:14.819Z,14.13
2023-05-19T09:50:01.700Z,14.90
2023-05-19T09:52:48.703Z,14.27
2023-05-19T09:55:35.609Z,14.32
2023-05-19T09:58:22.482Z,18.10
2023-05-19T10:01:09.641Z,16.15
2023-05-19T10:03:56.983Z,15.52
2023-05-19T10:06:44.299Z,18.55
2023-05-19T10:09:31.915Z,18.55
2023-05-19T10:12:19.303Z,13.23
2023-05-19T10:15:11.382Z,14.38
2023-05-19T10:17:59.413Z,15.27
2023-05-19T10:20:49.089Z,16.80
2023-05-19T10:23:36.029Z,15.82
2023-05-19T10:26:24.682Z,12.13
2023-05-19T10:29:14.598Z,12.80
2023-05-19T10:32:07.717Z,10.45
2023-05-19T10:34:54.536Z,11.30
2023-05-19T10:38:25.853Z,10.32
2023-05-19T10:41:22.266Z,12.85
2023-05-19T10:44:34.997Z,11.40
2023-05-19T10:47:25.440Z,10.43
2023-05-19T10:50:13.729Z,10.65
2023-05-19T10:53:02.497Z,9.32
2023-05-19T10:55:54.862Z,9.52
2023-05-19T10:58:44.437Z,11.20
2023-05-19T11:01:35.662Z,10.73
2023-05-19T11:04:39.447Z,9.93
2023-05-19T11:07:26.387Z,9.73
2023-05-19T11:10:13.313Z,8.05
2023-05-19T11:13:00.468Z,11.00
2023-05-19T11:15:47.353Z,9.45
2023-05-19T11:18:34.937Z,15.02
2023-05-19T11:21:21.967Z,10.98
2023-05-19T11:24:09.465Z,12.82
2023-05-19T11:26:57.136Z,10.50
2023-05-19T11:29:44.166Z,8.75
2023-05-19T11:32:35.477Z,11.18
2023-05-19T11:35:23.172Z,13.05
2023-05-19T11:38:11.379Z,11.38
2023-05-19T11:40:58.246Z,9.10
2023-05-19T11:43:47.500Z,10.65
2023-05-19T11:46:34.459Z,12.57
2023-05-19T11:49:21.541Z,12.07
2023-05-19T11:52:08.438Z,12.23
2023-05-19T11:54:55.307Z,11.85
2023-05-19T11:57:47.037Z,11.50
2023-05-19T12:00:40.955Z,13.10
2023-05-19T12:03:28.340Z,11.73
2023-05-19T12:06:15.585Z,13.52
2023-05-19T12:09:04.882Z,12.95
2023-05-19T12:11:52.033Z,10.30
2023-05-19T12:14:38.960Z,14.75
2023-05-19T12:17:25.852Z,18.48
2023-05-19T12:20:12.914Z,12.85
2023-05-19T12:23:01.027Z,13.10
2023-05-19T12:25:48.271Z,15.60
2023-05-19T12:28:35.277Z,17.45
2023-05-19T12:31:22.194Z,16.52
2023-05-19T12:34:09.072Z,16.30
2023-05-19T12:36:56.131Z,14.82
2023-05-19T12:39:43.353Z,12.10
2023-05-19T12:42:30.813Z,17.05
2023-05-19T12:45:21.081Z,15.38
2023-05-19T12:48:11.965Z,14.88
2023-05-19T12:50:58.908Z,14.68
2023-05-19T12:53:46.462Z,17.98
2023-05-19T12:56:33.348Z,18.13
2023-05-19T12:59:37.494Z,16.80
2023-05-19T13:02:25.497Z,21.70
2023-05-19T13:05:12.479Z,17.65
2023-05-19T13:08:09.094Z,16.40
2023-05-19T13:10:56.018Z,15.57
2023-05-19T13:13:42.855Z,15.13
2023-05-19T13:16:29.739Z,13.82
2023-05-19T13:19:25.532Z,17.45
2023-05-19T13:22:12.948Z,15.48
2023-05-19T13:24:59.788Z,15.80
2023-05-19T13:27:47.812Z,15.23
2023-05-19T13:30:37.082Z,12.88
2023-05-19T13:33:24.114Z,16.10
2023-05-19T13:36:10.967Z,12.98
2023-05-19T13:38:57.882Z,18.05
2023-05-19T13:41:44.720Z,14.05
2023-05-19T13:44:31.621Z,15.60
2023-05-19T13:47:18.521Z,14.52
2023-05-19T13:50:06.221Z,16.48
2023-05-19T13:52:53.061Z,17.88
2023-05-19T13:55:39.899Z,16.25
2023-05-19T13:58:26.764Z,15.30
2023-05-19T14:01:13.615Z,15.63
2023-05-19T14:04:01.297Z,17.92
2023-05-19T14:06:48.319Z,24.58
2023-05-19T14:09:35.161Z,21.60
2023-05-19T14:12:27.845Z,14.15
2023-05-19T14:15:17.757Z,14.80
2023-05-19T14:18:05.500Z,15.05
2023-05-19T14:20:53.464Z,12.20
2023-05-19T14:23:40.350Z,11.82
2023-05-19T14:26:29.222Z,12.27
2023-05-19T14:29:16.486Z,13.35
2023-05-19T14:32:03.535Z,13.85
2023-05-19T14:34:50.633Z,14.20
2023-05-19T14:37:37.483Z,13.13
2023-05-19T14:40:24.381Z,14.00
2023-05-19T14:43:11.424Z,16.17
2023-05-19T14:45:58.296Z,12.93
2023-05-19T14:48:45.131Z,14.15
2023-05-19T14:51:32.314Z,12.45
2023-05-19T14:54:19.157Z,16.40
2023-05-19T14:57:06.138Z,14.35
2023-05-19T14:59:53.044Z,13.23
2023-05-19T15:02:39.928Z,14.23
2023-05-19T15:05:26.851Z,16.60
2023-05-19T15:08:13.723Z,14.20
2023-05-19T15:11:00.524Z,15.63
2023-05-19T15:13:47.473Z,12.82
2023-05-19T15:16:34.370Z,13.13
2023-05-19T15:19:21.286Z,12.65
2023-05-19T15:22:08.658Z,13.77
2023-05-19T15:24:55.522Z,15.80
2023-05-19T15:27:42.468Z,12.55
2023-05-19T15:30:29.510Z,15.93
2023-05-19T15:33:16.441Z,14.23
2023-05-19T15:36:03.492Z,15.68
2023-05-19T15:38:50.313Z,14.20
2023-05-19T15:41:37.154Z,12.40
2023-05-19T15:44:24.004Z,13.50
2023-05-19T15:47:10.955Z,11.48
2023-05-19T15:49:57.813Z,12.90
2023-05-19T15:52:44.695Z,16.52
2023-05-19T15:55:31.570Z,12.63
2023-05-19T15:58:18.383Z,13.13
2023-05-19T16:01:06.112Z,15.05
2023-05-19T16:03:53.227Z,15.10
2023-05-19T16:06:40.176Z,13.70
2023-05-19T16:09:26.990Z,14.43
2023-05-19T16:12:13.828Z,15.93
2023-05-19T16:15:00.674Z,16.52
2023-05-19T16:17:47.566Z,12.82
2023-05-19T16:20:34.876Z,15.93
2023-05-19T16:23:22.086Z,12.55
2023-05-19T16:26:08.943Z,16.40
2023-05-19T16:28:55.796Z,14.80
2023-05-19T16:31:42.701Z,13.32
2023-05-19T16:34:30.652Z,13.52
2023-05-19T16:37:17.665Z,16.55
2023-05-19T16:40:04.989Z,14.15
2023-05-19T16:42:54.629Z,15.35
2023-05-19T16:45:41.491Z,14.38
2023-05-19T16:48:28.502Z,16.48
2023-05-19T16:51:15.341Z,13.63
2023-05-19T16:54:02.156Z,12.32
2023-05-19T16:56:50.606Z,16.27
2023-05-19T16:59:37.471Z,11.48
2023-05-19T17:02:24.349Z,11.70
2023-05-19T17:05:11.302Z,12.75
2023-05-19T17:07:58.149Z,12.77
2023-05-19T17:10:45.005Z,15.65
2023-05-19T17:13:31.965Z,12.25
2023-05-19T17:16:18.838Z,13.43
2023-05-19T17:19:05.680Z,14.02
2023-05-19T17:21:52.626Z,16.35
2023-05-19T17:24:39.459Z,15.27
2023-05-19T17:27:26.290Z,13.27
2023-05-19T17:30:13.506Z,14.90
2023-05-19T17:33:00.490Z,15.57
2023-05-19T17:35:47.319Z,15.13
2023-05-19T17:38:34.785Z,13.18
2023-05-19T17:41:21.677Z,13.57
2023-05-19T17:44:08.619Z,14.93
2023-05-19T17:46:55.497Z,10.60
2023-05-19T17:49:42.425Z,14.40
2023-05-19T17:52:29.579Z,12.90
2023-05-19T17:55:16.762Z,12.75
2023-05-19T17:58:03.844Z,13.15
2023-05-19T18:00:50.947Z,13.43
2023-05-19T18:03:38.202Z,13.13
2023-05-19T18:06:25.599Z,11.95
2023-05-19T18:09:13.502Z,9.10
2023-05-19T18:12:00.311Z,18.88
2023-05-19T18:14:47.101Z,13.07
2023-05-19T18:17:33.948Z,13.32
2023-05-19T18:20:20.845Z,15.00
2023-05-19T18:23:07.697Z,11.27
2023-05-19T18:25:54.520Z,12.10
2023-05-19T18:28:41.949Z,16.60
2023-05-19T18:31:28.935Z,10.68
2023-05-19T18:34:15.832Z,11.07
2023-05-19T18:37:02.631Z,12.02
2023-05-19T18:39:49.462Z,14.15
2023-05-19T18:42:36.273Z,13.02
2023-05-19T18:45:23.086Z,11.52
2023-05-19T18:48:10.041Z,10.20
2023-05-19T18:50:56.927Z,12.65
2023-05-19T18:53:44.417Z,15.77
2023-05-19T18:56:32.905Z,8.57
2023-05-19T18:59:19.706Z,8.82
2023-05-19T19:02:06.930Z,15.45
2023-05-19T19:04:53.880Z,10.07
2023-05-19T19:07:41.578Z,10.10
2023-05-19T19:10:28.413Z,10.65
2023-05-19T19:13:15.253Z,10.02
2023-05-19T19:16:02.121Z,14.80
2023-05-19T19:18:49.118Z,14.15
2023-05-19T19:21:36.026Z,10.85
2023-05-19T19:24:22.890Z,12.32
2023-05-19T19:27:10.105Z,10.65
2023-05-19T19:29:58.158Z,7.25
2023-05-19T19:32:45.062Z,8.40
2023-05-19T19:35:32.051Z,13.30
2023-05-19T19:38:18.888Z,8.93
2023-05-19T19:41:05.765Z,12.00
2023-05-19T19:43:52.610Z,10.65
2023-05-19T19:46:39.648Z,12.23
2023-05-19T19:49:26.495Z,13.38
2023-05-19T19:52:13.339Z,16.13
2023-05-19T19:55:00.223Z,8.98
2023-05-19T19:57:47.104Z,6.18
2023-05-19T20:00:34.186Z,10.57
2023-05-19T20:03:21.442Z,9.98
2023-05-19T20:06:08.379Z,10.55
2023-05-19T20:08:55.256Z,11.30
2023-05-19T20:11:43.315Z,12.85
2023-05-19T20:14:30.184Z,12.75
2023-05-19T20:17:17.521Z,12.15
2023-05-19T20:20:04.840Z,14.90
2023-05-19T20:22:51.682Z,8.68
2023-05-19T20:25:41.126Z,12.23
2023-05-19T20:28:31.474Z,10.65
2023-05-19T20:31:18.336Z,10.77
2023-05-19T20:34:05.150Z,12.48
2023-05-19T20:36:52.030Z,16.23
2023-05-19T20:39:38.922Z,11.82
2023-05-19T20:42:25.858Z,16.90
2023-05-19T20:45:12.777Z,13.38
2023-05-19T20:47:59.820Z,14.38
2023-05-19T20:50:46.704Z,13.10
2023-05-19T20:53:33.534Z,11.48
2023-05-19T20:56:20.388Z,13.50
2023-05-19T20:59:07.253Z,20.20
2023-05-19T21:01:54.132Z,12.57
2023-05-19T21:04:41.069Z,14.13
2023-05-19T21:07:28.085Z,11.95
2023-05-19T21:10:14.993Z,15.50
2023-05-19T21:13:01.829Z,12.25
2023-05-19T21:15:48.660Z,10.70
2023-05-19T21:18:35.452Z,10.35
2023-05-19T21:21:22.325Z,15.82
2023-05-19T21:24:09.347Z,17.25
2023-05-19T21:26:56.194Z,12.57
2023-05-19T21:29:43.054Z,17.90
2023-05-19T21:32:29.953Z,14.57
2023-05-19T21:35:16.944Z,15.27
2023-05-19T21:38:12.132Z,12.00
2023-05-19T21:41:09.342Z,13.88
2023-05-19T21:43:56.136Z,15.13
2023-05-19T21:46:43.434Z,12.55
2023-05-19T21:49:30.445Z,14.82
2023-05-19T21:52:17.301Z,10.93
2023-05-19T21:55:04.473Z,13.40
2023-05-19T21:57:51.314Z,16.13
2023-05-19T22:00:38.168Z,10.60
2023-05-19T22:03:25.077Z,13.40
2023-05-19T22:06:12.105Z,14.80
2023-05-19T22:08:58.950Z,16.35
2023-05-19T22:11:45.818Z,15.73
2023-05-19T22:14:32.700Z,19.98
2023-05-19T22:17:19.551Z,13.90
2023-05-19T22:20:06.962Z,12.60
2023-05-19T22:22:53.788Z,13.75
2023-05-19T22:25:40.646Z,52.17
2023-05-19T22:28:27.714Z,122.05
2023-05-19T22:31:14.538Z,319.52
2023-05-19T22:34:01.407Z,139.30
2023-05-19T22:36:48.202Z,90.80
2023-05-19T22:39:35.228Z,46.88
2023-05-19T22:42:22.083Z,34.95
2023-05-19T22:45:09.518Z,58.95
2023-05-19T22:47:56.413Z,85.82
2023-05-19T22:50:43.344Z,89.28
2023-05-19T22:53:30.160Z,59.60
2023-05-19T22:56:17.178Z,50.88
2023-05-19T22:59:04.014Z,47.75
2023-05-19T23:01:50.879Z,41.83
2023-05-19T23:04:37.992Z,35.30
2023-05-19T23:07:25.022Z,31.00
2023-05-19T23:10:11.849Z,33.33
2023-05-19T23:12:58.690Z,35.55
2023-05-19T23:15:45.495Z,31.45
2023-05-19T23:18:32.305Z,27.52
2023-05-19T23:21:19.263Z,17.42
2023-05-19T23:24:06.474Z,21.08
2023-05-19T23:26:56.368Z,20.48
2023-05-19T23:29:47.128Z,23.63
2023-05-19T23:32:34.068Z,14.02
2023-05-19T23:35:20.972Z,18.55
2023-05-19T23:38:07.788Z,17.05
2023-05-19T23:40:54.596Z,21.42
2023-05-19T23:43:41.445Z,15.63
2023-05-19T23:46:28.315Z,18.83
2023-05-19T23:49:15.173Z,18.73
2023-05-19T23:52:01.986Z,20.42
2023-05-19T23:54:48.928Z,18.02
2023-05-19T23:57:35.773Z,15.35
